Time;durP1;ratioP1;P1;durP2;ratioP2;P2;SDS_P1;SDS_P2;PMS_P1;PMS_P2;Temp;Humidity;BMP_temperature;BMP_pressure;BME280_temperature;BME280_humidity;BME280_pressure;Samples;Min_cycle;Max_cycle;Signal;HPM_P1;HPM_P2
2023/05/19 04:40:34;;;;;;;2.33;1.40;;;15.20;49.60;;;;;;4945360;28;20130;-63
2023/05/19 04:43:01;;;;;;;0.90;0.80;;;15.30;49.90;;;;;;4932941;29;20204;-63
2023/05/19 04:45:28;;;;;;;3.75;0.82;;;15.30;49.20;;;;;;4936438;29;20430;-63
2023/05/19 04:47:56;;;;;;;7.15;1.50;;;15.30;49.20;;;;;;4935621;29;20102;-63
2023/05/19 04:50:25;;;;;;;4.50;1.30;;;15.30;49.50;;;;;;4918574;29;20035;-63
2023/05/19 04:52:52;;;;;;;6.75;0.98;;;15.30;49.70;;;;;;4936326;29;20039;-63
2023/05/19 04:55:19;;;;;;;4.45;1.00;;;15.30;48.70;;;;;;4935595;29;20040;-63
2023/05/19 04:57:47;;;;;;;4.32;1.10;;;15.30;48.10;;;;;;4935460;29;20111;-63
2023/05/19 05:00:15;;;;;;;2.58;0.90;;;15.30;47.90;;;;;;4935566;29;20560;-63
2023/05/19 05:02:43;;;;;;;2.92;0.95;;;15.40;48.20;;;;;;4936170;29;20036;-64
2023/05/19 05:05:10;;;;;;;3.92;1.00;;;15.30;47.70;;;;;;4938617;29;20488;-63
2023/05/19 05:07:37;;;;;;;1.70;0.90;;;15.40;47.40;;;;;;4934439;29;20102;-63
2023/05/19 05:10:06;;;;;;;4.97;1.00;;;15.40;47.60;;;;;;4935866;29;20398;-63
2023/05/19 05:12:34;;;;;;;1.75;0.70;;;15.40;47.80;;;;;;4936201;29;20040;-63
2023/05/19 05:15:02;;;;;;;8.77;1.38;;;15.40;47.50;;;;;;4935865;29;20151;-63
2023/05/19 05:17:30;;;;;;;3.30;0.80;;;15.40;47.40;;;;;;4935828;29;20032;-63
2023/05/19 05:19:57;;;;;;;1.77;0.75;;;15.40;47.00;;;;;;4935907;29;20031;-63
2023/05/19 05:22:25;;;;;;;1.90;0.90;;;15.50;46.80;;;;;;4940014;29;20394;-63
2023/05/19 05:24:52;;;;;;;1.55;0.85;;;15.50;47.30;;;;;;4937555;29;20027;-63
2023/05/19 05:27:20;;;;;;;1.15;0.57;;;15.50;47.20;;;;;;4954496;28;20454;-63
2023/05/19 05:29:47;;;;;;;1.50;0.90;;;15.50;47.00;;;;;;4954242;29;20047;-63
2023/05/19 05:32:15;;;;;;;1.95;0.90;;;15.50;47.00;;;;;;4954769;29;20059;-63
2023/05/19 05:34:43;;;;;;;3.85;1.20;;;15.40;47.10;;;;;;4954614;29;20083;-63
2023/05/19 05:37:10;;;;;;;3.70;1.13;;;15.40;47.20;;;;;;4920865;29;20038;-63
2023/05/19 05:39:38;;;;;;;0.88;0.60;;;15.40;47.20;;;;;;4921591;29;20047;-63
2023/05/19 05:42:07;;;;;;;2.47;1.10;;;15.40;46.70;;;;;;4954352;29;20043;-63
2023/05/19 05:44:35;;;;;;;1.40;0.93;;;15.40;46.90;;;;;;4952480;29;20032;-64
2023/05/19 05:47:03;;;;;;;1.27;0.80;;;15.40;47.00;;;;;;4964697;28;20039;-64
2023/05/19 05:49:31;;;;;;;4.30;1.08;;;15.40;46.90;;;;;;4961524;28;20138;-63
2023/05/19 05:51:59;;;;;;;1.95;0.80;;;15.40;47.10;;;;;;4973676;28;20110;-63
2023/05/19 05:54:26;;;;;;;1.30;1.08;;;15.40;46.70;;;;;;4973727;28;20035;-67
2023/05/19 05:56:54;;;;;;;2.15;1.00;;;15.40;46.60;;;;;;4946638;28;20039;-64
2023/05/19 05:59:21;;;;;;;1.52;0.90;;;15.50;46.60;;;;;;4951830;28;20122;-65
2023/05/19 06:01:49;;;;;;;1.13;1.00;;;15.40;46.90;;;;;;4950430;29;20438;-66
2023/05/19 06:04:16;;;;;;;1.65;1.00;;;15.40;46.80;;;;;;4951719;29;20050;-66
2023/05/19 06:06:44;;;;;;;4.22;1.08;;;15.40;47.00;;;;;;4951492;28;20101;-66
2023/05/19 06:09:11;;;;;;;1.98;0.95;;;15.40;47.40;;;;;;4951173;28;20047;-66
2023/05/19 06:11:38;;;;;;;3.75;0.95;;;15.40;47.50;;;;;;4950003;29;20309;-66
2023/05/19 06:14:06;;;;;;;2.33;1.08;;;15.40;47.40;;;;;;4934394;29;20035;-66
2023/05/19 06:16:33;;;;;;;2.45;1.20;;;15.40;47.40;;;;;;4949484;29;20078;-66
2023/05/19 06:19:01;;;;;;;3.05;1.00;;;15.40;47.40;;;;;;4965995;28;20089;-67
2023/05/19 06:21:28;;;;;;;1.52;1.10;;;15.40;47.70;;;;;;4970402;28;20031;-66
2023/05/19 06:23:55;;;;;;;2.17;0.80;;;15.30;48.10;;;;;;4970779;28;20137;-66
2023/05/19 06:26:23;;;;;;;1.20;0.82;;;15.40;48.70;;;;;;4953793;28;20046;-65
2023/05/19 06:28:51;;;;;;;2.33;1.10;;;15.40;48.80;;;;;;4957132;28;20047;-66
2023/05/19 06:31:18;;;;;;;1.75;1.00;;;15.40;49.00;;;;;;4948563;28;20035;-66
2023/05/19 06:33:45;;;;;;;2.47;1.00;;;15.30;49.20;;;;;;4951105;28;20039;-65
2023/05/19 06:36:13;;;;;;;2.05;1.33;;;15.30;49.10;;;;;;4953261;28;20039;-66
2023/05/19 06:38:40;;;;;;;1.83;1.10;;;15.30;49.40;;;;;;4957394;28;20137;-65
2023/05/19 06:41:08;;;;;;;2.55;1.25;;;15.30;49.60;;;;;;4950868;28;20051;-66
2023/05/19 06:43:35;;;;;;;9.38;1.60;;;15.20;50.20;;;;;;4914663;29;20047;-64
2023/05/19 06:46:02;;;;;;;12.55;1.52;;;15.30;51.80;;;;;;4933208;28;20032;-65
2023/05/19 06:48:30;;;;;;;7.68;2.15;;;15.30;54.00;;;;;;4945916;28;20099;-65
2023/05/19 06:50:57;;;;;;;4.78;1.70;;;15.30;57.80;;;;;;4961273;28;20118;-66
2023/05/19 06:53:25;;;;;;;3.17;1.75;;;15.30;58.00;;;;;;4953418;29;20425;-66
2023/05/19 06:55:52;;;;;;;7.05;2.10;;;15.30;59.80;;;;;;4955691;29;20162;-65
2023/05/19 06:58:20;;;;;;;6.05;2.10;;;15.30;60.70;;;;;;4952355;28;20039;-66
2023/05/19 07:00:47;;;;;;;7.82;1.73;;;15.30;61.40;;;;;;4953653;28;20039;-67
2023/05/19 07:03:14;;;;;;;6.03;1.80;;;15.20;61.80;;;;;;4936690;29;20134;-66
2023/05/19 07:05:42;;;;;;;6.70;1.90;;;15.20;62.40;;;;;;4954654;29;20115;-66
2023/05/19 07:08:09;;;;;;;3.25;1.60;;;15.20;62.40;;;;;;4936096;29;20040;-69
2023/05/19 07:10:37;;;;;;;4.68;1.60;;;15.10;62.70;;;;;;4951028;29;20042;-69
2023/05/19 07:13:04;;;;;;;4.25;1.77;;;15.10;63.40;;;;;;4954271;28;20086;-69
2023/05/19 07:15:32;;;;;;;4.20;1.55;;;15.00;63.50;;;;;;4935894;28;20126;-68
2023/05/19 07:17:59;;;;;;;3.95;1.52;;;15.00;64.10;;;;;;4957677;28;20035;-70
2023/05/19 07:20:27;;;;;;;3.60;1.45;;;15.00;63.90;;;;;;4956402;28;20035;-68
2023/05/19 07:22:54;;;;;;;6.90;1.58;;;14.90;64.40;;;;;;4973785;28;20031;-68
2023/05/19 07:25:22;;;;;;;2.83;1.80;;;14.90;64.90;;;;;;4973749;28;20392;-68
2023/05/19 07:27:50;;;;;;;5.97;1.88;;;14.90;65.30;;;;;;4953104;28;20178;-69
2023/05/19 07:30:17;;;;;;;3.78;1.63;;;14.90;65.70;;;;;;4918709;29;20040;-68
2023/05/19 07:32:44;;;;;;;4.95;1.70;;;14.90;65.60;;;;;;4953997;29;20038;-72
2023/05/19 07:35:12;;;;;;;5.82;1.80;;;14.80;66.10;;;;;;4954393;29;20039;-71
2023/05/19 07:37:39;;;;;;;6.05;1.83;;;14.80;66.30;;;;;;4955232;28;20109;-71
2023/05/19 07:40:07;;;;;;;4.88;2.10;;;14.80;67.00;;;;;;4973281;28;20066;-69
2023/05/19 07:42:35;;;;;;;8.23;2.42;;;14.80;66.80;;;;;;4934189;29;20047;-70
2023/05/19 07:45:02;;;;;;;6.07;2.33;;;14.80;66.70;;;;;;4948737;28;20170;-70
2023/05/19 07:47:30;;;;;;;6.35;1.98;;;14.80;66.60;;;;;;4914977;28;20027;-68
2023/05/19 07:49:58;;;;;;;6.75;2.40;;;14.80;66.60;;;;;;4926418;29;20051;-69
2023/05/19 07:52:25;;;;;;;7.18;2.50;;;14.80;67.10;;;;;;4952838;28;20031;-68
2023/05/19 07:54:53;;;;;;;14.38;4.03;;;14.70;67.40;;;;;;4953832;29;20106;-69
2023/05/19 07:57:20;;;;;;;8.50;3.63;;;14.70;67.70;;;;;;4952502;28;20486;-68
2023/05/19 07:59:48;;;;;;;12.30;3.92;;;14.60;68.00;;;;;;4971008;28;20035;-68
2023/05/19 08:02:15;;;;;;;14.73;4.32;;;14.60;68.20;;;;;;4956714;28;20090;-68
2023/05/19 08:04:43;;;;;;;12.95;3.92;;;14.50;68.40;;;;;;4950965;29;20453;-69
2023/05/19 08:07:10;;;;;;;9.98;2.70;;;14.50;68.50;;;;;;4952682;28;20035;-69
2023/05/19 08:09:38;;;;;;;8.15;2.55;;;14.50;68.50;;;;;;4952670;28;20058;-68
2023/05/19 08:12:05;;;;;;;9.90;3.15;;;14.50;68.60;;;;;;4951744;28;20065;-68
2023/05/19 08:14:33;;;;;;;6.03;2.63;;;14.40;68.80;;;;;;4953079;29;20036;-68
2023/05/19 08:17:01;;;;;;;6.05;2.70;;;14.40;68.90;;;;;;4952909;28;20039;-68
2023/05/19 08:19:28;;;;;;;11.15;3.25;;;14.40;69.30;;;;;;4953349;28;20039;-68
2023/05/19 08:21:56;;;;;;;6.70;3.20;;;14.30;69.60;;;;;;4944072;28;20046;-69
2023/05/19 08:24:23;;;;;;;10.43;3.47;;;14.30;70.00;;;;;;4952114;28;20039;-68
2023/05/19 08:26:51;;;;;;;14.13;4.47;;;14.30;70.20;;;;;;4949224;28;20431;-68
2023/05/19 12:13:53;;;;;;;10.77;5.57;;;12.30;79.40;;;;;;4939321;28;20119;-68
2023/05/19 12:16:21;;;;;;;12.93;5.50;;;12.20;79.70;;;;;;4930621;29;20043;-68
2023/05/19 12:18:49;;;;;;;10.60;5.05;;;12.20;79.90;;;;;;4955962;28;20024;-69
2023/05/19 12:21:16;;;;;;;11.52;5.32;;;12.20;79.90;;;;;;4956141;29;20039;-68
2023/05/19 12:23:43;;;;;;;10.07;4.93;;;12.20;80.00;;;;;;4937675;29;20047;-68
2023/05/19 12:26:11;;;;;;;9.40;5.03;;;12.10;80.30;;;;;;4972564;28;20039;-68
2023/05/19 12:28:38;;;;;;;9.57;4.93;;;12.10;80.40;;;;;;4957867;28;20043;-68
2023/05/19 12:31:06;;;;;;;15.23;5.38;;;12.10;80.40;;;;;;4952881;28;20031;-69
2023/05/19 12:33:34;;;;;;;13.32;5.30;;;12.10;80.40;;;;;;4951809;29;20039;-69
2023/05/19 12:36:01;;;;;;;10.88;4.82;;;12.00;80.50;;;;;;4953673;28;20031;-69
2023/05/19 12:38:29;;;;;;;13.18;5.38;;;12.00;80.60;;;;;;4957698;28;20035;-70
2023/05/19 12:40:58;;;;;;;9.13;5.00;;;12.00;80.80;;;;;;4943614;28;20035;-70
2023/05/19 12:43:26;;;;;;;12.90;4.80;;;11.90;80.70;;;;;;4938321;29;20087;-69
2023/05/19 12:45:53;;;;;;;11.40;5.18;;;11.90;81.00;;;;;;4951325;28;20042;-70
2023/05/19 12:48:24;;;;;;;12.63;5.65;;;11.80;80.80;;;;;;4962225;28;20489;-69
2023/05/19 12:50:54;;;;;;;10.98;5.18;;;11.80;80.80;;;;;;4959383;28;20080;-70
2023/05/19 12:53:22;;;;;;;9.88;4.72;;;11.80;80.70;;;;;;4949505;29;20359;-70
2023/05/19 12:55:52;;;;;;;18.90;6.50;;;11.70;80.50;;;;;;4951122;28;20362;-70
2023/05/19 12:58:21;;;;;;;15.80;5.65;;;11.70;80.10;;;;;;4968229;28;20067;-71
2023/05/19 13:00:49;;;;;;;11.23;5.57;;;11.70;79.60;;;;;;4944073;28;20509;-71
2023/05/19 13:03:17;;;;;;;12.32;4.68;;;11.70;79.10;;;;;;4938079;29;20489;-70
2023/05/19 13:05:47;;;;;;;10.50;5.00;;;11.70;80.00;;;;;;4967483;28;20035;-70
2023/05/19 13:08:17;;;;;;;10.23;4.75;;;11.60;79.80;;;;;;4925695;29;20126;-70
2023/05/19 13:10:45;;;;;;;10.82;4.90;;;11.70;79.50;;;;;;4938286;29;20038;-70
2023/05/19 13:13:13;;;;;;;7.55;4.75;;;11.70;78.90;;;;;;4956182;28;20031;-71
